Terminal Aerodrome Forecast
Issued by NWS

Home | Current Version | Previous Version | Text Only | Print | Product List | Glossary On
Versions: 1 2 3 4 5 6 7 8 9 10 11 12 13 14 15 16
000
FTUS46 KSEW 211100
TAFCLM
TAF
KCLM 211120Z 2112/2212 28014G22KT P6SM BKN060 BKN090
     FM212100 28010KT P6SM SCT030 BKN050
     FM220200 26008KT P6SM BKN030 OVC060=

USA.gov is the U.S. government's official web portal to all federal, state and local government web resources and services.